Time;durP1;ratioP1;P1;durP2;ratioP2;P2;SDS_P1;SDS_P2;PMS_P1;PMS_P2;Temp;Humidity;BMP_temperature;BMP_pressure;BME280_temperature;BME280_humidity;BME280_pressure;Samples;Min_cycle;Max_cycle;Signal;HPM_P1;HPM_P2
2022/08/05 00:01:12;;;;;;;;;;;;;;;25.79;100.00;101391.84;7395037;19;20248;-54
2022/08/05 00:03:43;;;;;;;;;;;;;;;25.77;100.00;101381.25;7395236;19;19919;-57
2022/08/05 00:06:12;;;;;;;;;;;;;;;25.75;100.00;101372.53;7396644;19;20336;-59
2022/08/05 00:08:41;;;;;;;;;;;;;;;25.77;100.00;101369.69;7396115;19;20350;-55
2022/08/05 00:11:10;;;;;;;;;;;;;;;25.61;100.00;101381.13;7395906;19;19930;-58
2022/08/05 00:13:39;;;;;;;;;;;;;;;25.62;100.00;101388.16;7398905;19;20247;-53
2022/08/05 00:16:09;;;;;;;;;;;;;;;25.70;100.00;101393.59;7398918;19;19921;-56
2022/08/05 00:18:37;;;;;;;;;;;;;;;25.56;100.00;101387.78;7392586;19;20347;-54
2022/08/05 00:21:08;;;;;;;;;;;;;;;25.65;100.00;101382.50;7393719;19;20359;-55
2022/08/05 00:23:37;;;;;;;;;;;;;;;25.72;100.00;101378.22;7396433;19;19918;-54
2022/08/05 00:26:06;;;;;;;;;;;;;;;25.67;100.00;101377.81;7396583;19;19945;-55
2022/08/05 00:28:35;;;;;;;;;;;;;;;25.70;100.00;101375.69;7395121;19;19919;-55
2022/08/05 00:31:04;;;;;;;;;;;;;;;25.64;100.00;101378.97;7400351;19;19930;-52
2022/08/05 00:33:33;;;;;;;;;;;;;;;25.48;100.00;101378.81;7394911;19;19926;-54
2022/08/05 00:36:01;;;;;;;;;;;;;;;25.46;100.00;101360.19;7398678;19;19923;-53
2022/08/05 00:38:32;;;;;;;;;;;;;;;25.50;100.00;101361.53;7396885;19;19925;-55
2022/08/05 00:41:01;;;;;;;;;;;;;;;25.53;100.00;101358.56;7395943;19;19926;-56
2022/08/05 00:43:30;;;;;;;;;;;;;;;25.37;100.00;101359.25;7394328;19;20308;-55
2022/08/05 00:45:58;;;;;;;;;;;;;;;25.37;100.00;101361.09;7396665;19;19926;-55
2022/08/05 00:48:27;;;;;;;;;;;;;;;25.30;100.00;101354.59;7394872;19;19925;-57
2022/08/05 00:50:56;;;;;;;;;;;;;;;25.25;100.00;101357.75;7396017;19;20290;-54
2022/08/05 00:53:25;;;;;;;;;;;;;;;25.30;100.00;101368.84;7392912;19;19918;-54
2022/08/05 00:55:56;;;;;;;;;;;;;;;25.22;100.00;101372.31;7394921;19;19939;-55
2022/08/05 00:58:24;;;;;;;;;;;;;;;25.28;100.00;101380.75;7394434;19;20477;-55
2022/08/05 01:00:53;;;;;;;;;;;;;;;25.34;100.00;101380.16;7394436;19;19942;-58
2022/08/05 01:03:23;;;;;;;;;;;;;;;25.38;100.00;101374.34;7398190;19;19939;-55
2022/08/05 01:05:51;;;;;;;;;;;;;;;25.35;100.00;101384.56;7394835;19;19919;-52
2022/08/05 01:08:20;;;;;;;;;;;;;;;25.36;100.00;101381.72;7393792;19;19978;-54
2022/08/05 01:10:51;;;;;;;;;;;;;;;25.34;100.00;101380.16;7394456;19;19922;-56
2022/08/05 01:13:25;;;;;;;;;;;;;;;25.34;100.00;101375.63;7394478;19;19947;-55
2022/08/05 01:15:58;;;;;;;;;;;;;;;25.30;100.00;101373.38;7398637;19;20332;-54
2022/08/05 01:18:31;;;;;;;;;;;;;;;25.11;100.00;101369.00;7396468;19;19918;-55
2022/08/05 01:21:05;;;;;;;;;;;;;;;25.13;100.00;101370.53;7395218;19;19982;-56
2022/08/05 01:23:45;;;;;;;;;;;;;;;25.22;100.00;101371.47;7394502;19;19914;-56
2022/08/05 01:26:20;;;;;;;;;;;;;;;25.29;100.00;101380.59;7399182;19;19911;-55
2022/08/05 01:28:54;;;;;;;;;;;;;;;25.31;100.00;101380.44;7392157;19;19995;-56
2022/08/05 01:31:26;;;;;;;;;;;;;;;25.35;100.00;101385.38;7395144;19;19929;-53
2022/08/05 01:33:58;;;;;;;;;;;;;;;25.35;100.00;101396.13;7395055;19;20503;-55
2022/08/05 01:36:28;;;;;;;;;;;;;;;25.27;100.00;101392.47;7398952;19;19918;-57
2022/08/05 01:38:57;;;;;;;;;;;;;;;25.30;100.00;101386.78;7393942;19;19926;-52
2022/08/05 01:41:26;;;;;;;;;;;;;;;25.33;100.00;101389.19;7393154;19;19921;-54
2022/08/05 01:43:58;;;;;;;;;;;;;;;25.33;100.00;101395.44;7392989;19;19919;-54
2022/08/05 01:46:27;;;;;;;;;;;;;;;25.30;100.00;101386.78;7393824;19;19918;-53
2022/08/05 01:48:58;;;;;;;;;;;;;;;25.26;100.00;101397.00;7393549;19;19950;-51
2022/08/05 01:51:28;;;;;;;;;;;;;;;25.27;100.00;101400.50;7395110;19;20025;-52
2022/08/05 01:53:57;;;;;;;;;;;;;;;25.16;99.66;101407.78;7393004;19;19922;-55
2022/08/05 01:56:28;;;;;;;;;;;;;;;25.21;100.00;101420.72;7393083;19;20026;-52
2022/08/05 01:59:00;;;;;;;;;;;;;;;25.32;100.00;101417.88;7392454;19;19915;-54
2022/08/05 02:01:29;;;;;;;;;;;;;;;25.34;100.00;101421.25;7392497;19;19911;-51
2022/08/05 02:03:58;;;;;;;;;;;;;;;25.33;100.00;101410.66;7392037;19;19918;-54
2022/08/05 02:06:27;;;;;;;;;;;;;;;25.33;100.00;101413.34;7393004;19;19934;-54
2022/08/05 02:08:56;;;;;;;;;;;;;;;25.28;99.62;101408.41;7394637;19;19934;-54
2022/08/05 02:11:25;;;;;;;;;;;;;;;25.27;100.00;101405.88;7396185;19;19918;-52
2022/08/05 02:13:56;;;;;;;;;;;;;;;25.29;100.00;101419.97;7392071;19;19923;-55
2022/08/05 02:16:31;;;;;;;;;;;;;;;25.16;99.03;101429.25;7393503;19;19923;-51
2022/08/05 02:19:02;;;;;;;;;;;;;;;25.34;99.30;101425.78;7391992;19;19922;-55
2022/08/05 02:21:32;;;;;;;;;;;;;;;25.42;99.69;101435.75;7391931;19;19921;-55
2022/08/05 02:24:06;;;;;;;;;;;;;;;25.45;99.02;101430.94;7391808;19;19929;-57
2022/08/05 02:26:39;;;;;;;;;;;;;;;25.46;99.92;101432.63;7396775;19;19930;-55
2022/08/05 02:29:10;;;;;;;;;;;;;;;25.33;100.00;101437.50;7391609;19;19929;-55
2022/08/05 02:31:42;;;;;;;;;;;;;;;25.26;98.72;101436.38;7393077;19;19917;-54
2022/08/05 02:34:12;;;;;;;;;;;;;;;25.20;99.38;101432.44;7391549;19;19926;-53
2022/08/05 02:36:44;;;;;;;;;;;;;;;25.21;100.00;101429.63;7392729;19;20340;-56
2022/08/05 02:39:13;;;;;;;;;;;;;;;25.28;99.96;101423.69;7391768;19;19949;-56
2022/08/05 02:41:42;;;;;;;;;;;;;;;25.29;98.94;101422.66;7391448;19;19919;-55
2022/08/05 02:44:12;;;;;;;;;;;;;;;25.18;100.00;101419.19;7390388;19;19930;-52
2022/08/05 02:46:44;;;;;;;;;;;;;;;25.25;100.00;101408.72;7392031;19;19922;-51
2022/08/05 02:49:14;;;;;;;;;;;;;;;25.31;98.45;101400.09;7391514;19;19923;-52
2022/08/05 02:51:43;;;;;;;;;;;;;;;25.27;100.00;101400.50;7393141;19;20257;-53
2022/08/05 02:54:12;;;;;;;;;;;;;;;25.14;100.00;101396.34;7391783;19;19931;-51
2022/08/05 02:56:42;;;;;;;;;;;;;;;25.22;100.00;101393.75;7395271;19;19919;-53
2022/08/05 02:59:11;;;;;;;;;;;;;;;25.34;99.12;101391.72;7394279;19;19925;-56
2022/08/05 03:01:41;;;;;;;;;;;;;;;25.41;99.08;101394.66;7391646;19;19918;-50
2022/08/05 03:04:15;;;;;;;;;;;;;;;25.30;97.71;101390.31;7389711;19;19956;-57
2022/08/05 03:06:44;;;;;;;;;;;;;;;25.30;99.43;101398.34;7390416;19;19921;-54
2022/08/05 03:09:13;;;;;;;;;;;;;;;24.92;99.45;101412.84;7389055;19;19907;-54
2022/08/05 03:11:43;;;;;;;;;;;;;;;25.04;100.00;101408.97;7391485;19;20256;-53
2022/08/05 03:14:12;;;;;;;;;;;;;;;25.22;100.00;101417.06;7391083;19;19915;-55
2022/08/05 03:16:40;;;;;;;;;;;;;;;25.17;100.00;101401.41;7391048;19;19926;-57
2022/08/05 03:19:09;;;;;;;;;;;;;;;25.00;99.86;101404.88;7390219;19;19922;-56
2022/08/05 03:21:40;;;;;;;;;;;;;;;25.02;100.00;101419.84;7392227;19;19926;-52
2022/08/05 03:24:10;;;;;;;;;;;;;;;24.96;100.00;101424.94;7390102;19;20344;-55
2022/08/05 03:26:39;;;;;;;;;;;;;;;25.04;100.00;101400.91;7390587;19;19929;-53
2022/08/05 03:29:08;;;;;;;;;;;;;;;25.12;100.00;101408.22;7389661;19;19915;-58
2022/08/05 03:31:37;;;;;;;;;;;;;;;25.00;100.00;101413.78;7392146;19;19934;-51
2022/08/05 03:34:05;;;;;;;;;;;;;;;24.90;100.00;101417.50;7394184;19;19921;-53
2022/08/05 03:36:34;;;;;;;;;;;;;;;24.99;100.00;101413.94;7391221;19;20118;-52
2022/08/05 03:39:10;;;;;;;;;;;;;;;25.07;100.00;101407.81;7394434;19;19918;-58
2022/08/05 03:41:38;;;;;;;;;;;;;;;25.02;100.00;101393.03;7389537;19;19927;-55
2022/08/05 03:44:07;;;;;;;;;;;;;;;24.99;100.00;101384.44;7389111;19;19918;-56
2022/08/05 03:46:36;;;;;;;;;;;;;;;24.98;100.00;101385.44;7390618;19;19926;-55
2022/08/05 03:49:05;;;;;;;;;;;;;;;24.92;100.00;101383.34;7393894;19;19927;-55
2022/08/05 03:51:36;;;;;;;;;;;;;;;24.91;100.00;101381.66;7389920;19;20333;-51
2022/08/05 03:54:07;;;;;;;;;;;;;;;24.94;100.00;101379.50;7393345;19;19923;-53
2022/08/05 03:56:41;;;;;;;;;;;;;;;24.95;100.00;101391.09;7395527;19;19925;-51
2022/08/05 03:59:12;;;;;;;;;;;;;;;24.65;100.00;101398.41;7397031;19;19922;-51
2022/08/05 04:01:43;;;;;;;;;;;;;;;24.72;100.00;101396.00;7397071;19;19919;-51
2022/08/05 04:06:50;;;;;;;;;;;;;;;24.87;100.00;101403.41;7399714;19;19926;-50
2022/08/05 04:09:19;;;;;;;;;;;;;;;24.93;100.00;101403.78;7398564;19;19991;-51
2022/08/05 04:11:50;;;;;;;;;;;;;;;24.92;100.00;101407.47;7395745;19;20343;-51
2022/08/05 04:14:19;;;;;;;;;;;;;;;25.01;100.00;101403.91;7395637;19;20620;-55
2022/08/05 04:16:49;;;;;;;;;;;;;;;25.04;100.00;101407.13;7395188;19;20260;-52
2022/08/05 04:19:17;;;;;;;;;;;;;;;25.23;100.00;101399.97;7392912;19;19925;-53
2022/08/05 04:21:46;;;;;;;;;;;;;;;25.06;100.00;101398.94;7395310;19;19922;-50
2022/08/05 04:24:14;;;;;;;;;;;;;;;24.99;100.00;101396.00;7394677;19;19929;-51
2022/08/05 04:26:43;;;;;;;;;;;;;;;24.87;100.00;101389.13;7394665;19;19930;-52
2022/08/05 04:29:14;;;;;;;;;;;;;;;24.95;100.00;101381.19;7396148;19;19914;-50
2022/08/05 04:31:43;;;;;;;;;;;;;;;24.85;100.00;101372.38;7397930;19;20340;-51
2022/08/05 04:34:11;;;;;;;;;;;;;;;24.84;100.00;101370.66;7394373;19;19922;-53
2022/08/05 04:36:40;;;;;;;;;;;;;;;24.82;100.00;101375.34;7394716;19;19922;-52
2022/08/05 04:39:08;;;;;;;;;;;;;;;24.77;100.00;101372.25;7393479;19;19915;-51
2022/08/05 04:41:37;;;;;;;;;;;;;;;24.78;100.00;101380.16;7393549;19;19919;-56
2022/08/05 04:44:06;;;;;;;;;;;;;;;24.81;100.00;101395.09;7394337;19;19919;-54
2022/08/05 04:46:37;;;;;;;;;;;;;;;24.78;100.00;101406.13;7395366;19;20366;-50
2022/08/05 04:49:05;;;;;;;;;;;;;;;24.88;100.00;101418.47;7393171;19;19929;-50
2022/08/05 04:51:34;;;;;;;;;;;;;;;24.72;100.00;101414.75;7393838;19;19928;-56
2022/08/05 04:54:03;;;;;;;;;;;;;;;24.86;100.00;101425.00;7394001;19;19918;-54
2022/08/05 04:56:31;;;;;;;;;;;;;;;24.79;100.00;101431.94;7391069;19;19926;-55
2022/08/05 04:59:00;;;;;;;;;;;;;;;24.67;100.00;101433.94;7395258;19;19915;-55
2022/08/05 05:01:28;;;;;;;;;;;;;;;24.66;100.00;101430.41;7393415;19;19940;-54
2022/08/05 05:04:00;;;;;;;;;;;;;;;24.77;100.00;101431.22;7390831;19;20061;-52
2022/08/05 05:06:28;;;;;;;;;;;;;;;24.70;100.00;101441.69;7391842;19;20233;-54
2022/08/05 05:08:57;;;;;;;;;;;;;;;24.68;100.00;101436.47;7392933;19;19924;-52
2022/08/05 05:11:25;;;;;;;;;;;;;;;24.50;100.00;101439.03;7392945;19;19957;-52
2022/08/05 05:13:54;;;;;;;;;;;;;;;24.64;100.00;101431.53;7397681;19;19978;-52
2022/08/05 05:16:22;;;;;;;;;;;;;;;24.72;100.00;101439.72;7392330;19;20648;-56
2022/08/05 05:18:51;;;;;;;;;;;;;;;24.82;100.00;101443.19;7392219;19;19927;-53
2022/08/05 05:21:22;;;;;;;;;;;;;;;24.85;100.00;101442.06;7393379;19;20267;-54
2022/08/05 05:23:51;;;;;;;;;;;;;;;24.82;100.00;101442.38;7391807;19;20324;-51
2022/08/05 05:26:19;;;;;;;;;;;;;;;24.90;100.00;101438.94;7390573;19;19926;-53
2022/08/05 05:28:48;;;;;;;;;;;;;;;24.91;100.00;101430.75;7393520;19;19915;-53
2022/08/05 05:31:16;;;;;;;;;;;;;;;24.82;100.00;101434.31;7392670;19;20362;-53
2022/08/05 05:33:45;;;;;;;;;;;;;;;24.83;100.00;101441.34;7392816;19;19919;-54
2022/08/05 05:36:13;;;;;;;;;;;;;;;24.91;100.00;101446.84;7390911;19;19926;-51
2022/08/05 05:38:45;;;;;;;;;;;;;;;24.64;100.00;101451.13;7392208;19;19927;-55
2022/08/05 05:41:13;;;;;;;;;;;;;;;24.78;100.00;101449.00;7392355;19;19919;-55
2022/08/05 05:43:42;;;;;;;;;;;;;;;24.81;100.00;101441.50;7390904;19;19930;-52
2022/08/05 05:46:10;;;;;;;;;;;;;;;24.85;100.00;101450.94;7394202;19;19919;-54
2022/08/05 05:48:40;;;;;;;;;;;;;;;24.84;100.00;101440.38;7391874;19;20348;-55
2022/08/05 05:51:09;;;;;;;;;;;;;;;24.85;100.00;101442.91;7391829;19;19919;-55
2022/08/05 05:53:37;;;;;;;;;;;;;;;24.86;100.00;101441.91;7392154;19;20240;-54
2022/08/05 05:56:09;;;;;;;;;;;;;;;24.97;100.00;101440.03;7389863;19;19922;-56
2022/08/05 05:58:37;;;;;;;;;;;;;;;24.88;99.74;101439.91;7390883;19;19922;-55
2022/08/05 06:01:06;;;;;;;;;;;;;;;24.81;100.00;101435.31;7391813;19;19922;-55
2022/08/05 06:03:34;;;;;;;;;;;;;;;24.84;100.00;101443.88;7391123;19;19945;-52
2022/08/05 06:06:05;;;;;;;;;;;;;;;24.88;100.00;101444.44;7390760;19;19915;-50
2022/08/05 06:08:34;;;;;;;;;;;;;;;24.84;100.00;101448.41;7390953;19;20299;-49
2022/08/05 06:11:02;;;;;;;;;;;;;;;24.83;100.00;101450.25;7392376;19;19918;-51
2022/08/05 06:13:33;;;;;;;;;;;;;;;24.84;100.00;101457.28;7393165;19;19918;-51
2022/08/05 06:16:02;;;;;;;;;;;;;;;24.87;99.95;101465.06;7388782;19;19917;-52
2022/08/05 06:18:30;;;;;;;;;;;;;;;24.94;100.00;101465.31;7393369;19;20037;-52
2022/08/05 06:20:59;;;;;;;;;;;;;;;24.95;98.43;101475.03;7390126;19;20428;-54
2022/08/05 06:23:28;;;;;;;;;;;;;;;24.87;99.23;101473.09;7390555;19;19915;-55
2022/08/05 06:25:56;;;;;;;;;;;;;;;24.92;99.58;101475.34;7389070;19;19918;-53
2022/08/05 06:28:25;;;;;;;;;;;;;;;24.97;99.49;101470.38;7390465;19;19925;-53
2022/08/05 06:30:56;;;;;;;;;;;;;;;24.92;96.56;101474.50;7391323;19;20454;-50
2022/08/05 06:33:24;;;;;;;;;;;;;;;24.33;100.00;101477.28;7391123;19;20350;-50
2022/08/05 06:35:53;;;;;;;;;;;;;;;24.67;99.88;101482.16;7392792;19;19935;-51
2022/08/05 06:38:22;;;;;;;;;;;;;;;24.90;97.93;101479.16;7392228;19;20313;-53
2022/08/05 06:40:50;;;;;;;;;;;;;;;24.98;95.65;101481.97;7390468;19;19967;-54
2022/08/05 06:43:19;;;;;;;;;;;;;;;25.06;97.25;101482.06;7389847;19;19911;-52
2022/08/05 06:45:48;;;;;;;;;;;;;;;25.09;95.33;101478.22;7389030;19;20264;-52
2022/08/05 06:48:19;;;;;;;;;;;;;;;25.14;95.00;101476.78;7390091;19;19925;-50
2022/08/05 06:50:47;;;;;;;;;;;;;;;25.00;93.11;101482.66;7391128;19;19907;-54
2022/08/05 06:53:16;;;;;;;;;;;;;;;25.03;92.76;101477.84;7390080;19;19923;-50
2022/08/05 06:55:44;;;;;;;;;;;;;;;25.08;94.68;101484.59;7389106;19;19938;-54
2022/08/05 06:58:13;;;;;;;;;;;;;;;24.98;93.89;101490.84;7389714;19;19978;-48
2022/08/05 07:00:41;;;;;;;;;;;;;;;25.07;93.31;101489.09;7390091;19;19911;-50
2022/08/05 07:03:10;;;;;;;;;;;;;;;25.12;92.70;101497.56;7390148;19;20252;-54
2022/08/05 07:05:41;;;;;;;;;;;;;;;25.10;92.20;101496.84;7389227;19;19922;-52
2022/08/05 07:08:10;;;;;;;;;;;;;;;24.85;92.88;101493.00;7393369;19;19919;-52
2022/08/05 07:10:38;;;;;;;;;;;;;;;25.09;93.73;101495.19;7389639;19;19923;-50
2022/08/05 07:18:29;;;;;;;;;;;;;;;25.27;90.55;101510.50;7389047;19;19947;-51
2022/08/05 07:21:01;;;;;;;;;;;;;;;25.25;90.76;101517.88;7389776;19;20022;-51
2022/08/05 07:23:30;;;;;;;;;;;;;;;25.17;89.94;101516.72;7389202;19;19936;-54
2022/08/05 07:25:59;;;;;;;;;;;;;;;25.21;87.95;101519.97;7388810;19;19926;-52
2022/08/05 07:28:28;;;;;;;;;;;;;;;25.25;88.48;101515.19;7396953;19;20267;-51
2022/08/05 07:30:57;;;;;;;;;;;;;;;25.21;86.91;101519.97;7398214;19;19918;-57
2022/08/05 07:33:25;;;;;;;;;;;;;;;25.26;87.31;101532.94;7397300;19;19919;-51
2022/08/05 07:35:54;;;;;;;;;;;;;;;25.32;87.93;101543.97;7394985;19;19923;-49
2022/08/05 07:38:25;;;;;;;;;;;;;;;25.30;87.92;101545.91;7396645;19;19918;-54
2022/08/05 07:40:54;;;;;;;;;;;;;;;25.46;86.79;101544.47;7398975;19;19923;-49
2022/08/05 07:43:22;;;;;;;;;;;;;;;25.42;85.64;101551.13;7396760;19;19922;-53
2022/08/05 07:45:51;;;;;;;;;;;;;;;25.45;85.40;101550.84;7397573;19;19922;-55
2022/08/05 07:48:19;;;;;;;;;;;;;;;25.55;86.09;101548.97;7396186;19;19926;-51
2022/08/05 07:50:48;;;;;;;;;;;;;;;25.46;85.82;101555.22;7396677;19;19922;-54
2022/08/05 07:53:16;;;;;;;;;;;;;;;25.25;85.66;101552.72;7396920;19;19939;-54
2022/08/05 07:55:48;;;;;;;;;;;;;;;25.29;86.00;101541.56;7395044;19;19926;-54
2022/08/05 07:58:16;;;;;;;;;;;;;;;25.29;84.13;101548.75;7399234;19;19922;-51
2022/08/05 08:00:45;;;;;;;;;;;;;;;25.19;83.37;101548.81;7396525;19;19915;-52
2022/08/05 08:03:14;;;;;;;;;;;;;;;25.54;82.87;101548.09;7396657;19;20488;-54
2022/08/05 08:05:43;;;;;;;;;;;;;;;25.62;80.32;101554.56;7395392;19;19923;-56
2022/08/05 08:08:12;;;;;;;;;;;;;;;25.62;79.16;101558.13;7396662;19;19934;-55
2022/08/05 08:10:41;;;;;;;;;;;;;;;25.64;78.42;101556.09;7397487;19;19931;-53
2022/08/05 08:13:12;;;;;;;;;;;;;;;25.63;76.69;101548.22;7397337;19;19926;-54
2022/08/05 08:15:40;;;;;;;;;;;;;;;25.65;76.94;101552.44;7395426;19;19918;-56
2022/08/05 08:18:09;;;;;;;;;;;;;;;25.64;74.29;101552.59;7396471;19;20340;-55
2022/08/05 08:20:38;;;;;;;;;;;;;;;25.69;74.34;101558.34;7395476;19;19915;-54
2022/08/05 08:23:07;;;;;;;;;;;;;;;25.77;71.47;101558.44;7395286;19;19947;-50
2022/08/05 08:25:36;;;;;;;;;;;;;;;25.93;69.61;101549.72;7396359;19;19915;-50
2022/08/05 08:28:05;;;;;;;;;;;;;;;25.68;69.60;101551.31;7395365;19;19957;-50
2022/08/05 08:30:36;;;;;;;;;;;;;;;25.42;71.26;101556.50;7397228;19;20264;-56
2022/08/05 08:33:08;;;;;;;;;;;;;;;25.86;70.76;101564.75;7394973;19;19933;-55
2022/08/05 08:35:37;;;;;;;;;;;;;;;25.93;67.25;101565.84;7393035;19;19930;-53
2022/08/05 08:38:06;;;;;;;;;;;;;;;26.24;68.23;101560.16;7393815;19;19918;-54
2022/08/05 08:40:35;;;;;;;;;;;;;;;26.34;67.57;101566.28;7395111;19;19910;-54
2022/08/05 08:43:05;;;;;;;;;;;;;;;26.46;68.37;101564.22;7397842;19;19926;-53
2022/08/05 08:45:37;;;;;;;;;;;;;;;26.62;67.83;101566.19;7393778;19;20041;-51
2022/08/05 08:48:07;;;;;;;;;;;;;;;25.76;67.79;101580.91;7399366;19;19929;-52
2022/08/05 08:50:38;;;;;;;;;;;;;;;25.34;69.52;101573.34;7397327;19;19925;-53
2022/08/05 08:53:07;;;;;;;;;;;;;;;25.81;70.01;101586.69;7394815;19;19922;-53
2022/08/05 08:55:36;;;;;;;;;;;;;;;25.91;66.08;101587.47;7393089;19;20349;-49
2022/08/05 08:58:04;;;;;;;;;;;;;;;26.08;67.17;101593.91;7394068;19;19929;-53
2022/08/05 09:00:36;;;;;;;;;;;;;;;26.21;67.07;101598.09;7394034;19;19925;-50
2022/08/05 09:03:06;;;;;;;;;;;;;;;26.21;65.51;101593.53;7396236;19;19918;-49
2022/08/05 09:05:35;;;;;;;;;;;;;;;26.32;66.51;101597.88;7393485;19;19921;-48
2022/08/05 09:08:04;;;;;;;;;;;;;;;26.34;65.50;101611.97;7394343;19;19925;-49
2022/08/05 09:10:33;;;;;;;;;;;;;;;26.24;64.46;101606.66;7394531;19;19933;-50
2022/08/05 09:13:01;;;;;;;;;;;;;;;26.32;65.54;101611.31;7394726;19;19922;-50
2022/08/05 09:15:30;;;;;;;;;;;;;;;25.52;59.68;101614.50;7393571;19;20268;-51
2022/08/05 09:18:01;;;;;;;;;;;;;;;25.56;61.64;101631.16;7394767;19;19927;-48
2022/08/05 09:20:30;;;;;;;;;;;;;;;25.52;64.20;101625.25;7397620;19;20589;-48
2022/08/05 09:23:06;;;;;;;;;;;;;;;25.96;63.73;101627.28;7394415;19;19949;-49
2022/08/05 09:25:35;;;;;;;;;;;;;;;26.02;60.76;101632.13;7392505;19;19922;-53
2022/08/05 09:28:14;;;;;;;;;;;;;;;25.55;60.52;101627.63;7393748;19;19917;-53
2022/08/05 09:30:46;;;;;;;;;;;;;;;26.14;61.42;101632.75;7393162;19;19923;-54
2022/08/05 09:33:18;;;;;;;;;;;;;;;26.34;61.02;101630.78;7395139;19;19926;-49
2022/08/05 09:35:54;;;;;;;;;;;;;;;25.65;57.52;101626.75;7393899;19;19918;-50
2022/08/05 09:38:23;;;;;;;;;;;;;;;25.28;55.52;101630.22;7393245;19;19918;-52
2022/08/05 09:40:53;;;;;;;;;;;;;;;25.57;52.75;101632.84;7393574;19;19923;-49
2022/08/05 09:43:29;;;;;;;;;;;;;;;25.47;49.62;101638.25;7393319;19;19937;-53
2022/08/05 09:45:57;;;;;;;;;;;;;;;25.67;48.40;101627.44;7391702;19;19927;-54
2022/08/05 09:48:30;;;;;;;;;;;;;;;25.88;47.39;101638.78;7392435;19;20260;-52
2022/08/05 09:50:59;;;;;;;;;;;;;;;26.30;50.71;101626.72;7390379;19;19921;-55
2022/08/05 09:53:28;;;;;;;;;;;;;;;26.74;49.62;101628.69;7395985;19;19914;-53
2022/08/05 09:55:58;;;;;;;;;;;;;;;26.89;47.67;101623.59;7390975;19;19934;-54
2022/08/05 09:58:27;;;;;;;;;;;;;;;27.22;48.83;101638.16;7392331;19;19933;-53
2022/08/05 10:00:57;;;;;;;;;;;;;;;27.27;46.18;101633.13;7392526;19;19926;-49
2022/08/05 10:03:29;;;;;;;;;;;;;;;27.80;47.06;101646.56;7391930;19;19922;-48
2022/08/05 10:06:04;;;;;;;;;;;;;;;28.00;43.38;101649.88;7389540;19;19922;-55
2022/08/05 10:08:33;;;;;;;;;;;;;;;28.19;40.77;101645.22;7397645;19;19923;-54
2022/08/05 10:11:04;;;;;;;;;;;;;;;27.35;40.65;101659.28;7398087;19;19929;-52
2022/08/05 10:13:34;;;;;;;;;;;;;;;27.27;39.54;101654.66;7397163;19;19915;-50
2022/08/05 10:16:03;;;;;;;;;;;;;;;26.51;40.24;101658.69;7394363;19;19929;-51
2022/08/05 10:18:35;;;;;;;;;;;;;;;26.57;39.96;101655.38;7393901;19;19919;-56
2022/08/05 10:21:05;;;;;;;;;;;;;;;26.27;40.49;101659.25;7394871;19;19926;-53
2022/08/05 10:23:34;;;;;;;;;;;;;;;26.81;42.07;101655.78;7394691;19;19927;-54
2022/08/05 10:26:05;;;;;;;;;;;;;;;27.11;41.32;101659.94;7394424;19;19925;-53
2022/08/05 10:28:34;;;;;;;;;;;;;;;25.99;40.94;101664.63;7393708;19;19929;-50
2022/08/05 10:31:02;;;;;;;;;;;;;;;25.85;42.46;101670.50;7392484;19;19919;-51
2022/08/05 10:33:32;;;;;;;;;;;;;;;26.55;40.96;101673.50;7394578;19;19918;-50
2022/08/05 10:36:05;;;;;;;;;;;;;;;26.77;40.10;101664.16;7393990;19;19923;-51
2022/08/05 10:38:34;;;;;;;;;;;;;;;26.89;39.18;101666.63;7394871;19;19923;-52
2022/08/05 10:41:09;;;;;;;;;;;;;;;27.22;40.19;101669.56;7394036;19;19923;-54
2022/08/05 10:43:42;;;;;;;;;;;;;;;26.88;40.46;101665.78;7397033;19;19922;-51
2022/08/05 10:46:12;;;;;;;;;;;;;;;27.55;39.80;101683.28;7394078;19;20248;-53
2022/08/05 10:48:41;;;;;;;;;;;;;;;27.63;37.39;101686.03;7392885;19;20248;-54
2022/08/05 10:51:14;;;;;;;;;;;;;;;26.88;36.35;101676.53;7393953;19;20212;-51
2022/08/05 10:53:44;;;;;;;;;;;;;;;27.40;36.29;101681.19;7392071;19;19914;-56
2022/08/05 10:56:14;;;;;;;;;;;;;;;26.86;37.33;101688.44;7390745;19;19978;-51
2022/08/05 10:58:50;;;;;;;;;;;;;;;27.03;36.89;101689.44;7393577;19;19910;-55
2022/08/05 11:01:18;;;;;;;;;;;;;;;27.04;37.69;101696.53;7394596;19;19953;-53
2022/08/05 11:04:02;;;;;;;;;;;;;;;27.43;36.62;101693.47;7400225;19;19922;-55
2022/08/05 11:06:34;;;;;;;;;;;;;;;27.13;36.44;101692.06;7399308;19;19921;-50
2022/08/05 11:09:12;;;;;;;;;;;;;;;27.65;36.16;101700.16;7400465;19;19919;-52
2022/08/05 11:11:42;;;;;;;;;;;;;;;26.77;36.03;101699.13;7401343;19;19929;-50
2022/08/05 11:14:12;;;;;;;;;;;;;;;26.66;35.55;101702.00;7400413;19;19926;-53
2022/08/05 11:16:41;;;;;;;;;;;;;;;27.32;33.55;101716.06;7402296;19;19917;-49
2022/08/05 11:19:25;;;;;;;;;;;;;;;27.17;32.82;101715.78;7352976;19;19934;-57
2022/08/05 11:21:56;;;;;;;;;;;;;;;26.86;30.98;101718.88;7401940;19;20253;-49
2022/08/05 11:24:25;;;;;;;;;;;;;;;27.28;30.55;101720.06;7401087;19;20264;-51
2022/08/05 11:27:08;;;;;;;;;;;;;;;27.22;31.04;101716.19;7398608;19;19922;-52
2022/08/05 11:29:39;;;;;;;;;;;;;;;27.33;30.49;101728.53;7399919;19;20443;-54
2022/08/05 11:32:23;;;;;;;;;;;;;;;27.22;31.34;101726.94;7401528;19;19919;-54
2022/08/05 11:34:51;;;;;;;;;;;;;;;28.12;32.59;101725.88;7401134;19;19923;-52
2022/08/05 11:37:47;;;;;;;;;;;;;;;28.37;31.74;101736.75;7397606;19;19938;-55
2022/08/05 11:40:18;;;;;;;;;;;;;;;26.90;32.53;101736.38;7396548;19;19911;-50
2022/08/05 11:42:47;;;;;;;;;;;;;;;27.45;29.86;101743.47;7398758;19;19929;-49
2022/08/05 11:45:17;;;;;;;;;;;;;;;27.41;29.95;101741.22;7401521;19;19919;-51
2022/08/05 11:47:46;;;;;;;;;;;;;;;26.57;31.20;101743.25;7397634;19;19933;-53
2022/08/05 11:50:15;;;;;;;;;;;;;;;26.64;31.08;101755.09;7398038;19;19926;-55
2022/08/05 11:52:44;;;;;;;;;;;;;;;26.34;32.38;101750.88;7399373;19;19922;-52
2022/08/05 11:55:13;;;;;;;;;;;;;;;27.11;33.10;101752.22;7398883;19;19925;-52
2022/08/05 11:57:46;;;;;;;;;;;;;;;27.24;31.58;101746.47;7397195;19;19915;-48
2022/08/05 12:00:26;;;;;;;;;;;;;;;27.63;32.01;101756.03;7398245;19;19923;-53
2022/08/05 12:02:55;;;;;;;;;;;;;;;27.97;32.74;101757.94;7399467;19;19919;-52
2022/08/05 12:05:27;;;;;;;;;;;;;;;28.38;31.94;101760.00;7398273;19;20342;-50
2022/08/05 12:07:58;;;;;;;;;;;;;;;29.08;30.75;101769.66;7396593;19;19923;-51
2022/08/05 12:10:28;;;;;;;;;;;;;;;29.70;29.68;101766.44;7399016;19;19923;-52
2022/08/05 12:13:04;;;;;;;;;;;;;;;29.71;30.16;101775.41;7398345;19;20233;-48
2022/08/05 12:15:33;;;;;;;;;;;;;;;28.68;29.50;101784.75;7403135;19;19925;-48
2022/08/05 12:18:01;;;;;;;;;;;;;;;27.72;30.97;101779.31;7399010;19;19918;-50
2022/08/05 12:20:31;;;;;;;;;;;;;;;27.60;30.49;101794.88;7399025;19;20339;-51
2022/08/05 12:23:09;;;;;;;;;;;;;;;26.62;31.30;101781.25;7400795;19;19915;-50
2022/08/05 12:25:50;;;;;;;;;;;;;;;26.50;30.89;101785.16;7396435;19;19926;-53
2022/08/05 12:28:33;;;;;;;;;;;;;;;27.02;30.04;101795.34;7397506;19;20354;-53
2022/08/05 12:31:05;;;;;;;;;;;;;;;26.72;30.03;101794.69;7399970;19;19921;-54
2022/08/05 12:33:34;;;;;;;;;;;;;;;27.08;30.11;101803.66;7397765;19;19927;-49
2022/08/05 12:36:03;;;;;;;;;;;;;;;27.52;29.34;101804.75;7396174;19;19921;-55
2022/08/05 12:38:32;;;;;;;;;;;;;;;27.50;28.66;101804.06;7397619;19;19933;-53
2022/08/05 12:41:01;;;;;;;;;;;;;;;27.78;29.29;101810.16;7397246;19;19923;-53
2022/08/05 12:43:30;;;;;;;;;;;;;;;27.75;29.15;101814.03;7397192;19;20335;-49
2022/08/05 12:45:58;;;;;;;;;;;;;;;27.48;28.91;101801.50;7395408;19;19945;-53
2022/08/05 12:48:39;;;;;;;;;;;;;;;28.05;28.83;101819.13;7399729;19;19929;-48
2022/08/05 12:51:11;;;;;;;;;;;;;;;29.12;28.93;101838.47;7397759;19;20252;-50
2022/08/05 12:53:43;;;;;;;;;;;;;;;29.27;28.46;101833.28;7396984;19;19926;-49
2022/08/05 12:56:19;;;;;;;;;;;;;;;28.61;28.38;101836.66;7396220;19;19930;-49